createdAt,value
2019-05-22T18:35:56.869Z,993.42
2019-05-22T18:36:52.811Z,993.4
2019-05-22T18:37:52.805Z,993.42
2019-05-22T18:38:52.809Z,993.47
2019-05-22T18:39:52.798Z,993.47
2019-05-22T18:40:52.792Z,993.4
2019-05-22T18:41:52.790Z,993.44
2019-05-22T18:42:52.792Z,993.42
2019-05-22T18:43:52.781Z,993.45
2019-05-22T18:44:52.779Z,993.42
2019-05-22T18:45:52.778Z,993.43
2019-05-22T18:46:52.775Z,993.39
2019-05-22T18:47:52.771Z,993.44
2019-05-22T18:48:52.772Z,993.44
2019-05-22T18:49:52.767Z,993.46
2019-05-22T18:50:52.765Z,993.47
2019-05-22T18:51:52.764Z,993.5
2019-05-22T18:52:52.768Z,993.5
2019-05-22T18:53:52.758Z,993.52
2019-05-22T18:54:52.756Z,993.48
2019-05-22T18:55:52.757Z,993.5
2019-05-22T18:56:52.754Z,993.54
2019-05-22T18:57:52.763Z,993.5
2019-05-22T18:58:52.748Z,993.5
2019-05-22T18:59:59.863Z,993.48
2019-05-22T19:00:52.746Z,993.52
2019-05-22T19:01:52.744Z,993.57
2019-05-22T19:02:52.745Z,993.55
2019-05-22T19:03:52.740Z,993.53
2019-05-22T19:04:52.742Z,993.56
2019-05-22T19:05:52.739Z,993.56
2019-05-22T19:06:55.684Z,993.57
2019-05-22T19:07:54.148Z,993.57
2019-05-22T19:08:52.741Z,993.6
2019-05-22T19:09:52.742Z,993.58
2019-05-22T19:10:52.734Z,993.58
2019-05-22T19:11:52.734Z,993.62
2019-05-22T19:12:52.725Z,993.65
2019-05-22T19:13:52.732Z,993.63
2019-05-22T19:14:52.724Z,993.66
2019-05-22T19:15:52.724Z,993.66
2019-05-22T19:16:52.771Z,993.66
2019-05-22T19:17:52.722Z,993.69
2019-05-22T19:18:55.752Z,993.66
2019-05-22T19:19:52.740Z,993.7
2019-05-22T19:20:52.713Z,993.68
2019-05-22T19:21:52.718Z,993.67
2019-05-22T19:22:59.823Z,993.64
2019-05-22T19:23:52.709Z,993.69
2019-05-22T19:24:52.709Z,993.72
2019-05-22T19:25:52.701Z,993.74
2019-05-22T19:26:52.695Z,993.71
2019-05-22T19:27:52.697Z,993.75
2019-05-22T19:28:52.695Z,993.74
2019-05-22T19:29:52.696Z,993.73
2019-05-22T19:30:52.691Z,993.74
2019-05-22T19:31:52.689Z,993.74
2019-05-22T19:32:52.700Z,993.82
2019-05-22T19:33:52.688Z,993.81
2019-05-22T19:34:52.688Z,993.8
2019-05-22T19:35:52.690Z,993.87
2019-05-22T19:36:54.340Z,993.85
2019-05-22T19:37:52.675Z,993.88
2019-05-22T19:38:52.701Z,993.89
2019-05-22T19:39:53.286Z,993.92
2019-05-22T19:40:52.667Z,993.94
2019-05-22T19:42:01.734Z,993.98
2019-05-22T19:42:52.662Z,993.94
2019-05-22T19:43:52.668Z,993.98
2019-05-22T19:44:52.672Z,993.98
2019-05-22T19:45:52.655Z,994.01
2019-05-22T19:46:52.658Z,993.99
2019-05-22T19:47:52.648Z,994.01
2019-05-22T19:48:52.656Z,994.07
2019-05-22T19:49:52.642Z,994.11
2019-05-22T19:50:55.672Z,994.1
2019-05-22T19:51:52.636Z,994.11
2019-05-22T19:52:52.684Z,994.09
2019-05-22T19:53:52.639Z,994.11
2019-05-22T19:54:52.641Z,994.11
2019-05-22T19:55:52.629Z,994.13
2019-05-22T19:56:52.637Z,994.16
2019-05-22T19:57:52.631Z,994.14
2019-05-22T19:58:52.621Z,994.16
2019-05-22T19:59:52.616Z,994.16
2019-05-22T20:00:52.615Z,994.19
2019-05-22T20:01:52.616Z,994.16
2019-05-22T20:02:52.620Z,994.19
2019-05-22T20:03:52.614Z,994.19
2019-05-22T20:04:52.609Z,994.18
2019-05-22T20:05:52.601Z,994.17
2019-05-22T20:06:52.597Z,994.17
2019-05-22T20:07:52.647Z,994.22
2019-05-22T20:08:52.593Z,994.2
2019-05-22T20:09:52.590Z,994.21
2019-05-22T20:10:52.587Z,994.19
2019-05-22T20:11:52.582Z,994.21
2019-05-22T20:12:52.581Z,994.21
2019-05-22T20:13:52.580Z,994.2
2019-05-22T20:14:52.572Z,994.21
2019-05-22T20:15:52.575Z,994.2
2019-05-22T20:16:52.575Z,994.22
2019-05-22T20:17:52.567Z,994.23
2019-05-22T20:18:52.567Z,994.24
2019-05-22T20:19:52.572Z,994.26
2019-05-22T20:20:52.558Z,994.25
2019-05-22T20:21:52.558Z,994.32
2019-05-22T20:22:54.155Z,994.24
2019-05-22T20:23:52.550Z,994.29
2019-05-22T20:24:52.549Z,994.32
2019-05-22T20:25:52.543Z,994.28
2019-05-22T20:26:52.543Z,994.28
2019-05-22T20:27:52.541Z,994.31
2019-05-22T20:28:52.536Z,994.33
2019-05-22T20:29:52.528Z,994.32
2019-05-22T20:30:52.532Z,994.34
2019-05-22T20:31:52.523Z,994.33
2019-05-22T20:32:52.520Z,994.38
2019-05-22T20:33:55.554Z,994.37
2019-05-22T20:34:52.515Z,994.35
2019-05-22T20:35:52.512Z,994.35
2019-05-22T20:36:52.506Z,994.34
2019-05-22T20:37:52.504Z,994.34
2019-05-22T20:38:52.507Z,994.32
2019-05-22T20:39:52.499Z,994.36
2019-05-22T20:40:52.500Z,994.31
2019-05-22T20:41:52.492Z,994.31
2019-05-22T20:42:52.493Z,994.32
2019-05-22T20:43:52.493Z,994.31
2019-05-22T20:44:52.479Z,994.32
2019-05-22T20:45:52.482Z,994.32
2019-05-22T20:46:52.474Z,994.37
2019-05-22T20:47:52.474Z,994.38
2019-05-22T20:48:52.472Z,994.35
2019-05-22T20:49:52.488Z,994.32
2019-05-22T20:50:52.463Z,994.38
2019-05-22T20:51:52.473Z,994.33
2019-05-22T20:52:52.457Z,994.34
2019-05-22T20:53:54.464Z,994.33
2019-05-22T20:54:53.055Z,994.33
2019-05-22T20:55:52.447Z,994.32
2019-05-22T20:56:52.445Z,994.33
2019-05-22T20:57:52.478Z,994.31
2019-05-22T20:58:52.434Z,994.33
2019-05-22T20:59:52.428Z,994.35
2019-05-22T21:00:52.436Z,994.36
2019-05-22T21:01:52.422Z,994.36
2019-05-22T21:02:52.423Z,994.35
2019-05-22T21:03:52.421Z,994.38
2019-05-22T21:04:52.426Z,994.32
2019-05-22T21:05:55.442Z,994.37
2019-05-22T21:06:52.406Z,994.37
2019-05-22T21:07:52.402Z,994.36
2019-05-22T21:08:52.398Z,994.36
2019-05-22T21:09:52.392Z,994.42
2019-05-22T21:10:52.430Z,994.39
2019-05-22T21:11:52.393Z,994.36
2019-05-22T21:12:52.393Z,994.38
2019-05-22T21:13:52.379Z,994.35
2019-05-22T21:14:52.376Z,994.35
2019-05-22T21:15:52.375Z,994.36
2019-05-22T21:16:52.368Z,994.41
2019-05-22T21:17:52.377Z,994.4
2019-05-22T21:18:52.728Z,994.41
2019-05-22T21:19:52.357Z,994.38
2019-05-22T21:20:54.970Z,994.41
2019-05-22T21:21:52.352Z,994.42
2019-05-22T21:22:52.347Z,994.39
2019-05-22T21:23:52.342Z,994.41
2019-05-22T21:24:52.340Z,994.44
2019-05-22T21:25:52.338Z,994.42
2019-05-22T21:26:52.352Z,994.43
2019-05-22T21:27:52.335Z,994.44
2019-05-22T21:28:52.324Z,994.43
2019-05-22T21:29:52.320Z,994.47
2019-05-22T21:30:52.326Z,994.43
2019-05-22T21:31:52.315Z,994.43
2019-05-22T21:32:52.308Z,994.41
2019-05-22T21:33:52.311Z,994.41
2019-05-22T21:34:52.301Z,994.44
2019-05-22T21:35:52.302Z,994.41
2019-05-22T21:36:52.292Z,994.45
2019-05-22T21:37:53.704Z,994.41
2019-05-22T21:38:52.303Z,994.41
2019-05-22T21:39:52.282Z,994.38
2019-05-22T21:40:52.286Z,994.39
2019-05-22T21:41:52.278Z,994.38
2019-05-22T21:42:52.274Z,994.37
2019-05-22T21:43:52.273Z,994.34
2019-05-22T21:44:52.267Z,994.37
2019-05-22T21:45:52.259Z,994.35
2019-05-22T21:46:52.263Z,994.36
2019-05-22T21:47:52.259Z,994.4
2019-05-22T21:48:57.053Z,994.34
2019-05-22T21:49:52.262Z,994.33
2019-05-22T21:50:52.249Z,994.35
2019-05-22T21:51:52.235Z,994.31
2019-05-22T21:52:52.231Z,994.32
2019-05-22T21:53:52.224Z,994.31
2019-05-22T21:54:52.223Z,994.28
2019-05-22T21:56:03.911Z,994.31
2019-05-22T21:56:52.212Z,994.29
2019-05-22T21:57:52.240Z,994.33
2019-05-22T21:58:52.204Z,994.32
2019-05-22T21:59:52.202Z,994.32
2019-05-22T22:00:52.200Z,994.29
2019-05-22T22:01:52.193Z,994.32
2019-05-22T22:02:52.195Z,994.34
2019-05-22T22:03:52.186Z,994.31
2019-05-22T22:04:52.187Z,994.28
2019-05-22T22:05:52.183Z,994.35
2019-05-22T22:06:52.174Z,994.32
2019-05-22T22:07:52.165Z,994.33
2019-05-22T22:08:52.174Z,994.34
2019-05-22T22:09:52.763Z,994.32
2019-05-22T22:10:52.151Z,994.37
2019-05-22T22:11:52.150Z,994.38
2019-05-22T22:12:52.148Z,994.39
2019-05-22T22:13:52.145Z,994.4
2019-05-22T22:14:52.135Z,994.41
2019-05-22T22:15:52.136Z,994.41
2019-05-22T22:16:52.133Z,994.37
2019-05-22T22:17:52.130Z,994.39
2019-05-22T22:18:52.123Z,994.36
2019-05-22T22:19:52.118Z,994.41
2019-05-22T22:20:55.144Z,994.4
2019-05-22T22:21:52.185Z,994.41
2019-05-22T22:22:52.097Z,994.39
2019-05-22T22:23:52.094Z,994.41
2019-05-22T22:24:52.140Z,994.41
2019-05-22T22:25:52.087Z,994.43
2019-05-22T22:26:52.081Z,994.41
2019-05-22T22:27:52.087Z,994.47
2019-05-22T22:28:52.073Z,994.43
2019-05-22T22:29:52.069Z,994.47
2019-05-22T22:30:52.059Z,994.48
2019-05-22T22:31:52.058Z,994.48
2019-05-22T22:32:52.052Z,994.5
2019-05-22T22:33:52.046Z,994.53
2019-05-22T22:34:52.045Z,994.5
2019-05-22T22:35:52.046Z,994.51
2019-05-22T22:36:52.032Z,994.49
2019-05-22T22:37:52.037Z,994.52
2019-05-22T22:38:52.027Z,994.51
2019-05-22T22:39:52.020Z,994.53
2019-05-22T22:40:52.034Z,994.56
2019-05-22T22:41:52.014Z,994.53
2019-05-22T22:42:52.010Z,994.57
2019-05-22T22:43:52.000Z,994.53
2019-05-22T22:44:51.995Z,994.54
2019-05-22T22:45:51.992Z,994.5
2019-05-22T22:46:51.986Z,994.48
2019-05-22T22:47:51.981Z,994.5
2019-05-22T22:48:51.976Z,994.51
2019-05-22T22:49:51.971Z,994.48
2019-05-22T22:50:51.968Z,994.47
2019-05-22T22:51:51.964Z,994.51
2019-05-22T22:52:53.377Z,994.51
2019-05-22T22:53:51.960Z,994.48
2019-05-22T22:54:51.948Z,994.51
2019-05-22T22:55:51.942Z,994.53
2019-05-22T22:56:51.942Z,994.5
2019-05-22T22:57:51.934Z,994.55
2019-05-22T22:58:51.926Z,994.52
2019-05-22T22:59:51.928Z,994.54
2019-05-22T23:00:51.921Z,994.56
2019-05-22T23:01:51.920Z,994.55
2019-05-22T23:02:51.908Z,994.57
2019-05-22T23:03:58.173Z,994.57
2019-05-22T23:04:51.899Z,994.56
2019-05-22T23:05:51.897Z,994.57
2019-05-22T23:06:51.891Z,994.59
2019-05-22T23:07:51.897Z,994.56
2019-05-22T23:08:51.879Z,994.55
2019-05-22T23:09:51.928Z,994.57
2019-05-22T23:10:51.888Z,994.57
2019-05-22T23:11:51.867Z,994.57
2019-05-22T23:12:51.859Z,994.59
2019-05-22T23:13:51.863Z,994.6
2019-05-22T23:14:51.851Z,994.61
2019-05-22T23:15:51.844Z,994.66
2019-05-22T23:16:51.842Z,994.64
2019-05-22T23:17:51.833Z,994.69
2019-05-22T23:18:51.830Z,994.68
2019-05-22T23:19:51.841Z,994.64
2019-05-22T23:20:51.834Z,994.64
2019-05-22T23:21:51.834Z,994.6
2019-05-22T23:22:51.818Z,994.62
2019-05-22T23:23:51.805Z,994.59
2019-05-22T23:24:52.696Z,994.64
2019-05-22T23:25:51.793Z,994.62
2019-05-22T23:26:51.821Z,994.66
2019-05-22T23:27:51.783Z,994.65
2019-05-22T23:28:51.781Z,994.69
2019-05-22T23:29:51.781Z,994.67
2019-05-22T23:30:51.781Z,994.66
2019-05-22T23:31:51.774Z,994.68
2019-05-22T23:32:51.774Z,994.66
2019-05-22T23:33:51.785Z,994.68
2019-05-22T23:34:51.748Z,994.65
2019-05-22T23:35:54.775Z,994.68
2019-05-22T23:36:51.740Z,994.66
2019-05-22T23:37:51.740Z,994.68
2019-05-22T23:38:51.725Z,994.66
2019-05-22T23:39:51.721Z,994.72
2019-05-22T23:40:51.713Z,994.69
2019-05-22T23:41:51.709Z,994.65
2019-05-22T23:42:51.708Z,994.7
2019-05-22T23:43:51.704Z,994.67
2019-05-22T23:44:51.695Z,994.64
2019-05-22T23:45:51.691Z,994.68
2019-05-22T23:46:51.684Z,994.69
2019-05-22T23:47:51.681Z,994.71
2019-05-22T23:48:51.676Z,994.68
2019-05-22T23:49:51.665Z,994.68
2019-05-22T23:50:51.662Z,994.69
2019-05-22T23:51:51.656Z,994.66
2019-05-22T23:52:51.655Z,994.66
2019-05-22T23:53:51.645Z,994.63
2019-05-22T23:54:51.658Z,994.63
2019-05-22T23:55:51.633Z,994.69
2019-05-22T23:56:51.632Z,994.68
2019-05-22T23:57:51.623Z,994.68
2019-05-22T23:58:53.253Z,994.71
2019-05-22T23:59:51.614Z,994.71
